Time;durP1;ratioP1;P1;durP2;ratioP2;P2;SDS_P1;SDS_P2;PMS_P1;PMS_P2;Temp;Humidity;BMP_temperature;BMP_pressure;BME280_temperature;BME280_humidity;BME280_pressure;Samples;Min_cycle;Max_cycle;Signal;HPM_P1;HPM_P2
2022/07/29 00:01:44;;;;;;;0.10;0.10;;;;;;;24.48;74.85;98210.00;5089730;28;20135;-76
2022/07/29 00:04:11;;;;;;;0.10;0.10;;;;;;;24.45;74.11;98211.13;5089064;28;20566;-76
2022/07/29 00:06:38;;;;;;;0.10;0.10;;;;;;;24.51;74.08;98202.50;5088588;28;20040;-76
2022/07/29 00:09:05;;;;;;;0.10;0.10;;;;;;;24.49;74.86;98206.34;5086278;28;20043;-76
2022/07/29 00:11:32;;;;;;;0.10;0.10;;;;;;;24.44;74.20;98195.22;5087777;28;20183;-76
2022/07/29 00:13:59;;;;;;;0.10;0.10;;;;;;;24.44;74.11;98198.75;5083976;28;20109;-76
2022/07/29 00:16:25;;;;;;;0.10;0.10;;;;;;;24.48;75.12;98192.09;5089468;28;20050;-76
2022/07/29 00:18:52;;;;;;;0.10;0.10;;;;;;;24.33;75.55;98195.44;5087857;28;20048;-76
2022/07/29 00:21:18;;;;;;;0.10;0.10;;;;;;;24.31;76.50;98186.72;5086937;28;20044;-76
2022/07/29 00:23:45;;;;;;;0.10;0.10;;;;;;;24.31;75.58;98192.09;5089047;28;20074;-76
2022/07/29 00:26:12;;;;;;;0.10;0.10;;;;;;;24.31;76.49;98174.16;5089139;28;20040;-76
2022/07/29 00:28:38;;;;;;;0.10;0.10;;;;;;;24.17;75.77;98182.69;5082837;28;20044;-76
2022/07/29 00:31:05;;;;;;;0.10;0.10;;;;;;;24.18;76.72;98180.88;5086365;28;20051;-76
2022/07/29 00:33:32;;;;;;;0.10;0.10;;;;;;;24.33;76.86;98174.03;5086869;28;20075;-76
2022/07/29 00:35:58;;;;;;;0.00;0.00;;;;;;;24.36;77.11;98174.56;5088859;28;20054;-76
2022/07/29 00:38:25;;;;;;;0.10;0.10;;;;;;;24.33;77.11;98172.22;5087330;28;20072;-76
2022/07/29 00:40:52;;;;;;;0.10;0.10;;;;;;;24.18;76.48;98178.19;5087429;28;20055;-76
2022/07/29 00:43:18;;;;;;;0.10;0.10;;;;;;;24.11;77.85;98172.59;5087721;28;20067;-76
2022/07/29 00:45:45;;;;;;;0.10;0.10;;;;;;;24.16;77.78;98173.00;5084643;28;20214;-76
2022/07/29 00:48:11;;;;;;;0.10;0.10;;;;;;;24.14;77.66;98176.81;5085424;28;20498;-76
2022/07/29 00:50:38;;;;;;;0.10;0.10;;;;;;;24.22;76.48;98175.06;5087271;28;20079;-76
2022/07/29 00:53:07;;;;;;;0.10;0.10;;;;;;;24.31;76.83;98176.03;5086466;28;20052;-76
2022/07/29 00:55:35;;;;;;;0.10;0.10;;;;;;;24.37;76.13;98168.22;5088777;28;20095;-76
2022/07/29 00:58:02;;;;;;;0.10;0.10;;;;;;;24.36;75.05;98169.22;5086242;28;20040;-76
2022/07/29 01:00:29;;;;;;;0.10;0.10;;;;;;;24.34;75.39;98168.53;5086297;28;20052;-76
2022/07/29 01:02:55;;;;;;;0.10;0.10;;;;;;;24.38;75.33;98171.75;5086229;28;20048;-76
2022/07/29 01:05:24;;;;;;;0.10;0.10;;;;;;;24.43;75.60;98166.78;5086759;28;20078;-76
2022/07/29 01:08:12;;;;;;;0.10;0.10;;;;;;;23.77;78.83;98164.28;5087984;28;20043;-76
2022/07/29 01:10:39;;;;;;;0.10;0.10;;;;;;;23.63;81.69;98170.13;5086678;28;20201;-76
2022/07/29 01:13:06;;;;;;;0.00;0.00;;;;;;;23.97;80.18;98165.03;5088205;28;20079;-76
2022/07/29 01:15:43;;;;;;;0.10;0.10;;;;;;;24.11;79.32;98153.88;5083864;28;20126;-76
2022/07/29 01:18:23;;;;;;;0.10;0.10;;;;;;;23.71;81.55;98154.19;5084760;28;20056;-76
2022/07/29 01:21:08;;;;;;;0.10;0.10;;;;;;;23.92;81.50;98151.28;5083364;28;20112;-76
2022/07/29 01:23:51;;;;;;;0.05;0.05;;;;;;;23.52;82.36;98151.59;5084698;28;20050;-76
2022/07/29 01:26:44;;;;;;;0.10;0.10;;;;;;;23.23;86.09;98153.50;5088114;28;20139;-75
2022/07/29 01:29:22;;;;;;;0.10;0.10;;;;;;;23.74;84.00;98153.06;5083913;28;20418;-76
2022/07/29 01:32:01;;;;;;;0.10;0.10;;;;;;;23.88;82.08;98155.25;5085281;28;20296;-76
2022/07/29 01:34:41;;;;;;;0.10;0.10;;;;;;;24.00;82.09;98158.56;5075477;28;20056;-76
2022/07/29 01:37:18;;;;;;;0.10;0.10;;;;;;;23.96;82.10;98157.19;5082129;28;20056;-76
2022/07/29 01:39:47;;;;;;;0.10;0.10;;;;;;;24.12;81.67;98152.91;5079176;28;20044;-76
2022/07/29 01:42:36;;;;;;;0.10;0.10;;;;;;;24.17;81.52;98149.78;5085870;28;20294;-76
2022/07/29 01:45:29;;;;;;;0.10;0.10;;;;;;;23.92;81.78;98146.78;5085730;28;20138;-76
2022/07/29 01:48:26;;;;;;;0.10;0.10;;;;;;;24.01;81.80;98149.56;5085677;28;20052;-76
2022/07/29 01:51:22;;;;;;;0.10;0.10;;;;;;;23.97;81.11;98148.16;5084566;28;20066;-76
2022/07/29 01:54:21;;;;;;;0.10;0.10;;;;;;;23.53;83.57;98144.41;5085241;28;20051;-76
2022/07/29 01:56:50;;;;;;;0.10;0.10;;;;;;;23.28;87.04;98151.19;5099696;28;20642;-76
2022/07/29 01:59:18;;;;;;;0.10;0.10;;;;;;;23.55;86.44;98145.09;5073251;28;20068;-76
2022/07/29 02:01:48;;;;;;;0.10;0.10;;;;;;;23.41;85.48;98150.94;5088010;28;20040;-76
2022/07/29 02:04:20;;;;;;;0.10;0.10;;;;;;;23.16;87.54;98149.72;5086987;28;21164;-76
2022/07/29 02:06:58;;;;;;;0.10;0.10;;;;;;;23.36;87.71;98148.69;5069689;28;20062;-76
2022/07/29 02:09:25;;;;;;;0.10;0.10;;;;;;;23.29;87.53;98144.88;5085988;28;20047;-76
2022/07/29 02:11:53;;;;;;;0.10;0.10;;;;;;;23.50;86.58;98137.53;5087575;28;20505;-76
2022/07/29 02:14:21;;;;;;;0.10;0.10;;;;;;;23.49;85.20;98141.19;5091258;28;20078;-76
2022/07/29 02:16:52;;;;;;;0.10;0.10;;;;;;;23.56;85.85;98142.28;5089584;28;20139;-76
2022/07/29 02:19:22;;;;;;;0.10;0.10;;;;;;;23.40;84.94;98134.03;5088451;28;20454;-75
2022/07/29 02:21:51;;;;;;;0.10;0.10;;;;;;;22.92;90.77;98139.47;5089987;28;20130;-76
2022/07/29 02:24:18;;;;;;;0.10;0.10;;;;;;;22.89;90.52;98146.91;5085394;28;20409;-76
2022/07/29 02:26:45;;;;;;;0.10;0.10;;;;;;;23.13;89.53;98137.47;5085009;28;20075;-76
2022/07/29 02:29:12;;;;;;;0.10;0.10;;;;;;;23.26;87.92;98140.66;5087603;28;20105;-76
2022/07/29 02:31:39;;;;;;;0.10;0.10;;;;;;;23.28;85.88;98144.03;5091268;28;20079;-76
2022/07/29 02:34:08;;;;;;;0.10;0.10;;;;;;;23.32;85.42;98143.75;5090752;28;20052;-75
2022/07/29 02:36:34;;;;;;;0.10;0.10;;;;;;;23.15;84.75;98146.19;5090217;28;20076;-76
2022/07/29 02:39:02;;;;;;;0.10;0.10;;;;;;;23.05;86.27;98140.00;5088686;28;20127;-76
2022/07/29 02:41:41;;;;;;;0.10;0.10;;;;;;;23.04;88.23;98143.69;5071259;28;20082;-76
2022/07/29 02:44:13;;;;;;;0.10;0.10;;;;;;;23.15;86.98;98132.81;5086780;28;20064;-75
2022/07/29 02:46:45;;;;;;;0.10;0.10;;;;;;;23.17;85.45;98141.53;5089713;28;20044;-75
2022/07/29 02:49:29;;;;;;;0.10;0.10;;;;;;;23.16;86.89;98136.34;5089376;28;20043;-76
2022/07/29 02:52:02;;;;;;;0.10;0.10;;;;;;;23.32;84.73;98136.56;5090696;28;20062;-75
2022/07/29 02:54:39;;;;;;;0.10;0.10;;;;;;;23.03;86.81;98138.47;5087984;28;20047;-75
2022/07/29 02:57:35;;;;;;;0.10;0.10;;;;;;;23.28;84.45;98136.00;5091082;28;20178;-75
2022/07/29 03:00:21;;;;;;;0.10;0.10;;;;;;;23.33;82.45;98132.91;5086777;28;20048;-75
2022/07/29 03:02:50;;;;;;;0.10;0.10;;;;;;;23.17;83.10;98132.66;5090452;28;20043;-76
2022/07/29 03:05:18;;;;;;;0.10;0.10;;;;;;;23.04;85.45;98140.16;5086782;28;20078;-76
2022/07/29 03:07:47;;;;;;;0.10;0.10;;;;;;;23.16;85.23;98139.84;5097573;28;20058;-75
2022/07/29 03:10:14;;;;;;;0.10;0.10;;;;;;;21.90;94.23;98152.41;5087962;28;20047;-76
2022/07/29 03:12:41;;;;;;;0.10;0.10;;;;;;;22.40;91.68;98142.53;5089843;28;20537;-75
2022/07/29 03:15:08;;;;;;;0.10;0.10;;;;;;;22.85;87.68;98137.50;5087538;28;20048;-76
2022/07/29 03:17:36;;;;;;;0.10;0.10;;;;;;;22.35;90.04;98145.63;5087170;28;20576;-76
2022/07/29 03:20:03;;;;;;;0.10;0.10;;;;;;;22.04;93.78;98146.69;5087711;28;20398;-76
2022/07/29 03:22:30;;;;;;;0.10;0.10;;;;;;;21.84;94.33;98147.63;5087700;28;20483;-76
2022/07/29 03:24:56;;;;;;;0.10;0.10;;;;;;;21.95;94.02;98150.19;5088800;28;20079;-75
2022/07/29 03:27:23;;;;;;;0.10;0.10;;;;;;;22.12;92.52;98149.53;5090526;28;20768;-75
2022/07/29 03:29:49;;;;;;;0.10;0.10;;;;;;;22.29;92.00;98142.69;5071332;28;20044;-75
2022/07/29 03:32:16;;;;;;;0.10;0.10;;;;;;;22.23;92.17;98152.06;5088808;28;20143;-76
2022/07/29 03:34:50;;;;;;;0.10;0.10;;;;;;;21.78;95.81;98146.31;5087971;28;20101;-76
2022/07/29 03:37:17;;;;;;;0.10;0.10;;;;;;;22.36;92.96;98149.16;5087780;28;20126;-75
2022/07/29 03:39:44;;;;;;;0.10;0.10;;;;;;;22.48;92.97;98140.03;5088789;28;20072;-76
2022/07/29 03:42:13;;;;;;;0.10;0.10;;;;;;;22.27;96.75;98142.78;5090650;28;20048;-76
2022/07/29 03:44:41;;;;;;;0.10;0.10;;;;;;;22.46;96.06;98142.00;5086137;28;20486;-76
2022/07/29 03:47:09;;;;;;;0.10;0.10;;;;;;;22.74;94.27;98140.34;5088223;28;20044;-76
2022/07/29 03:49:37;;;;;;;0.10;0.10;;;;;;;22.48;95.79;98148.03;5086724;28;20071;-76
2022/07/29 03:52:04;;;;;;;0.10;0.10;;;;;;;22.51;95.44;98161.94;5087135;28;20109;-76
2022/07/29 03:54:31;;;;;;;0.10;0.10;;;;;;;22.55;96.38;98149.97;5087674;28;20044;-76
2022/07/29 03:56:59;;;;;;;0.10;0.10;;;;;;;22.72;94.56;98148.47;5086439;28;20072;-76
2022/07/29 03:59:26;;;;;;;0.10;0.10;;;;;;;22.86;92.93;98149.91;5087006;28;20044;-76
2022/07/29 04:01:55;;;;;;;0.10;0.10;;;;;;;22.91;92.58;98152.97;5088797;28;20051;-76
2022/07/29 04:04:22;;;;;;;0.10;0.10;;;;;;;23.01;91.90;98153.78;5082888;28;20139;-76
2022/07/29 04:06:48;;;;;;;0.10;0.10;;;;;;;22.83;94.56;98152.84;5086439;28;20483;-76
2022/07/29 04:09:17;;;;;;;0.10;0.10;;;;;;;23.03;93.46;98152.66;5086365;28;20130;-76
2022/07/29 04:11:44;;;;;;;0.00;0.00;;;;;;;23.03;93.80;98158.00;5089429;28;20143;-76
2022/07/29 04:14:33;;;;;;;0.10;0.10;;;;;;;22.90;94.46;98157.47;5088093;28;20122;-76
2022/07/29 04:17:03;;;;;;;0.10;0.10;;;;;;;23.05;94.37;98163.19;5089348;28;20090;-76
2022/07/29 04:19:30;;;;;;;0.10;0.10;;;;;;;23.12;93.15;98161.66;5085181;28;20049;-76
2022/07/29 04:21:57;;;;;;;0.10;0.10;;;;;;;22.89;94.77;98160.28;5085905;28;20072;-75
2022/07/29 04:24:24;;;;;;;0.10;0.10;;;;;;;23.02;94.38;98158.16;5087756;28;20086;-76
2022/07/29 04:26:51;;;;;;;0.10;0.10;;;;;;;22.86;93.90;98161.41;5090281;28;20070;-75
2022/07/29 04:29:18;;;;;;;0.10;0.10;;;;;;;22.84;94.31;98163.38;5088311;28;20040;-76
2022/07/29 04:31:44;;;;;;;0.10;0.10;;;;;;;22.81;94.58;98166.31;5088251;28;20105;-74
2022/07/29 04:34:11;;;;;;;0.10;0.10;;;;;;;22.79;94.67;98168.28;5087750;28;20050;-75
2022/07/29 04:36:38;;;;;;;0.10;0.10;;;;;;;22.81;94.97;98170.84;5087157;28;20048;-75
2022/07/29 04:39:05;;;;;;;0.10;0.10;;;;;;;22.61;96.43;98164.66;5086683;28;20040;-76
2022/07/29 04:41:31;;;;;;;0.10;0.10;;;;;;;22.44;98.84;98167.97;5086685;28;20326;-75
2022/07/29 04:44:05;;;;;;;0.10;0.10;;;;;;;22.56;98.61;98161.50;5087597;28;20052;-76
2022/07/29 04:46:33;;;;;;;0.10;0.10;;;;;;;22.40;99.08;98161.22;5088173;28;20113;-75
2022/07/29 04:48:59;;;;;;;0.10;0.10;;;;;;;22.39;99.72;98168.38;5087095;28;20044;-75
2022/07/29 04:51:26;;;;;;;0.10;0.10;;;;;;;22.54;98.44;98166.16;5086294;28;20174;-75
2022/07/29 04:53:53;;;;;;;0.10;0.10;;;;;;;22.61;98.28;98158.44;5088881;28;20506;-75
2022/07/29 04:56:19;;;;;;;0.10;0.10;;;;;;;22.74;96.85;98165.19;5086923;28;20056;-75
2022/07/29 04:58:46;;;;;;;0.10;0.10;;;;;;;22.68;97.70;98170.25;5085207;28;20112;-75
2022/07/29 05:01:12;;;;;;;0.10;0.10;;;;;;;22.65;97.23;98163.38;5085374;28;20150;-76
2022/07/29 05:03:39;;;;;;;0.10;0.10;;;;;;;22.66;97.48;98162.41;5087047;28;20048;-75
2022/07/29 05:06:05;;;;;;;0.00;0.00;;;;;;;22.66;97.86;98159.72;5086923;28;20078;-75
2022/07/29 05:08:32;;;;;;;0.10;0.10;;;;;;;22.78;96.53;98158.59;5086007;28;20160;-75
2022/07/29 05:10:59;;;;;;;0.10;0.10;;;;;;;22.87;96.01;98168.44;5087451;28;20480;-76
2022/07/29 05:13:38;;;;;;;0.10;0.10;;;;;;;22.85;95.55;98169.56;5084285;28;20054;-75
2022/07/29 05:16:12;;;;;;;0.10;0.10;;;;;;;23.02;94.62;98166.19;5084251;28;20143;-75
2022/07/29 05:18:39;;;;;;;0.00;0.00;;;;;;;23.03;94.57;98170.53;5088430;28;20044;-75
2022/07/29 05:21:06;;;;;;;0.10;0.10;;;;;;;23.11;94.20;98171.50;5088196;28;20462;-75
2022/07/29 05:23:33;;;;;;;0.10;0.10;;;;;;;23.21;94.24;98172.31;5087018;28;20044;-76
2022/07/29 05:25:59;;;;;;;0.10;0.10;;;;;;;23.26;93.64;98169.22;5086031;28;20052;-76
2022/07/29 05:28:26;;;;;;;0.10;0.10;;;;;;;23.36;92.91;98166.56;5086012;28;20054;-75
2022/07/29 05:30:52;;;;;;;0.10;0.10;;;;;;;23.39;91.85;98169.78;5084408;28;20150;-76
2022/07/29 05:33:19;;;;;;;0.10;0.10;;;;;;;23.46;91.48;98165.56;5085940;28;20044;-76
2022/07/29 05:36:07;;;;;;;0.10;0.10;;;;;;;23.39;91.19;98166.28;5086597;28;20059;-75
2022/07/29 05:38:35;;;;;;;0.10;0.10;;;;;;;23.53;90.54;98166.66;5086245;28;20044;-75
2022/07/29 05:41:02;;;;;;;0.10;0.10;;;;;;;23.52;91.25;98164.09;5087949;28;20079;-76
2022/07/29 05:43:28;;;;;;;0.08;0.08;;;;;;;23.61;90.17;98169.41;5086767;28;20067;-75
2022/07/29 05:45:55;;;;;;;0.00;0.00;;;;;;;23.69;89.25;98166.88;5097594;28;20052;-75
2022/07/29 05:48:22;;;;;;;0.10;0.10;;;;;;;23.78;87.77;98178.50;5091964;28;20056;-75
2022/07/29 05:50:49;;;;;;;0.10;0.10;;;;;;;23.93;87.57;98180.56;5092143;28;20056;-76
2022/07/29 05:53:16;;;;;;;0.10;0.10;;;;;;;23.65;88.89;98178.88;5093042;28;20054;-76
2022/07/29 05:55:46;;;;;;;0.10;0.10;;;;;;;23.69;89.54;98176.72;5092932;28;20040;-76
2022/07/29 05:58:12;;;;;;;0.10;0.10;;;;;;;23.84;88.06;98184.09;5091668;28;20051;-76
2022/07/29 06:00:39;;;;;;;0.10;0.10;;;;;;;24.05;86.46;98185.72;5091182;28;20127;-76
2022/07/29 06:03:06;;;;;;;0.10;0.10;;;;;;;24.10;85.64;98192.31;5090685;28;20098;-76
2022/07/29 06:05:32;;;;;;;0.10;0.10;;;;;;;24.01;86.14;98192.38;5089002;28;20124;-76
2022/07/29 06:07:59;;;;;;;0.10;0.10;;;;;;;24.41;84.65;98187.50;5091716;28;20083;-75
2022/07/29 06:10:26;;;;;;;0.10;0.10;;;;;;;24.40;82.12;98189.34;5092027;28;20101;-76
2022/07/29 06:12:53;;;;;;;0.10;0.10;;;;;;;24.58;80.48;98190.19;5091321;28;20082;-76
2022/07/29 06:15:20;;;;;;;0.10;0.10;;;;;;;24.59;79.92;98196.41;5088507;28;20043;-76
2022/07/29 06:17:47;;;;;;;0.10;0.10;;;;;;;24.53;79.95;98197.84;5091082;28;20487;-75
2022/07/29 06:20:26;;;;;;;0.10;0.10;;;;;;;24.67;79.64;98199.16;5088019;28;20502;-75
2022/07/29 06:22:53;;;;;;;0.10;0.10;;;;;;;24.83;77.64;98202.00;5091319;28;20437;-76
2022/07/29 06:25:19;;;;;;;0.10;0.10;;;;;;;24.96;75.83;98193.59;5090461;28;20048;-76
2022/07/29 06:27:46;;;;;;;0.00;0.00;;;;;;;25.44;74.81;98196.69;5091554;28;20505;-77
2022/07/29 06:30:13;;;;;;;0.10;0.10;;;;;;;25.57;70.16;98201.63;5091376;28;20068;-75
2022/07/29 06:32:39;;;;;;;0.00;0.00;;;;;;;25.80;68.96;98203.63;5090898;28;20538;-76
2022/07/29 06:35:09;;;;;;;0.10;0.10;;;;;;;25.98;67.67;98205.41;5090892;28;20055;-76
2022/07/29 06:37:55;;;;;;;0.10;0.10;;;;;;;26.03;66.11;98211.94;5087013;28;20052;-76
2022/07/29 06:43:10;;;;;;;0.10;0.10;;;;;;;26.03;65.62;98209.25;5090854;28;20043;-76
2022/07/29 06:45:40;;;;;;;0.10;0.10;;;;;;;26.11;65.91;98206.66;5090943;28;20516;-76
2022/07/29 06:48:08;;;;;;;0.00;0.00;;;;;;;25.84;66.86;98213.03;5091271;28;20052;-76
2022/07/29 06:50:35;;;;;;;0.10;0.10;;;;;;;26.05;65.37;98207.25;5090564;28;20562;-75
2022/07/29 06:53:01;;;;;;;0.10;0.10;;;;;;;26.16;68.69;98216.91;5089209;28;20058;-76
2022/07/29 06:55:28;;;;;;;0.10;0.10;;;;;;;26.14;66.26;98211.69;5085036;28;20087;-77
2022/07/29 06:57:54;;;;;;;0.10;0.10;;;;;;;26.17;66.49;98214.06;5090731;28;20079;-76
2022/07/29 07:00:21;;;;;;;0.75;0.75;;;;;;;26.32;64.98;98216.97;5089562;28;20058;-75
2022/07/29 07:02:47;;;;;;;0.10;0.10;;;;;;;26.28;65.28;98212.94;5091983;28;20463;-77
2022/07/29 07:05:14;;;;;;;0.10;0.10;;;;;;;26.31;68.17;98210.75;5090900;28;20422;-76
2022/07/29 07:07:41;;;;;;;0.10;0.10;;;;;;;26.37;64.40;98207.44;5090046;28;20044;-76
2022/07/29 07:10:08;;;;;;;0.10;0.10;;;;;;;25.81;66.08;98223.25;5088721;28;20436;-75
2022/07/29 07:12:34;;;;;;;0.10;0.10;;;;;;;26.29;65.06;98215.44;5087543;28;20056;-75
2022/07/29 07:15:00;;;;;;;0.00;0.00;;;;;;;26.46;64.16;98219.03;5090312;28;20075;-76
2022/07/29 07:17:27;;;;;;;0.00;0.00;;;;;;;26.58;62.62;98217.72;5091282;28;20406;-75
2022/07/29 07:19:54;;;;;;;0.10;0.10;;;;;;;26.69;62.30;98220.09;5090135;28;20131;-75
2022/07/29 07:22:21;;;;;;;0.00;0.00;;;;;;;26.80;61.53;98213.63;5091209;28;20044;-76
2022/07/29 07:24:47;;;;;;;0.10;0.10;;;;;;;26.83;62.87;98221.31;5089194;28;20084;-76
2022/07/29 07:27:14;;;;;;;0.10;0.10;;;;;;;27.15;59.68;98218.66;5087962;28;20048;-76
2022/07/29 07:29:40;;;;;;;0.10;0.10;;;;;;;26.85;60.29;98228.22;5089315;28;20050;-75
2022/07/29 07:32:09;;;;;;;0.10;0.10;;;;;;;26.66;61.20;98219.59;5090288;28;20058;-76
2022/07/29 07:34:37;;;;;;;0.10;0.10;;;;;;;27.03;61.07;98222.72;5090844;28;20131;-75
2022/07/29 07:37:05;;;;;;;0.10;0.10;;;;;;;27.29;61.54;98228.75;5085483;28;20048;-72
2022/07/29 07:39:31;;;;;;;0.00;0.00;;;;;;;27.35;60.16;98230.78;5088264;28;20051;-76
2022/07/29 07:41:57;;;;;;;0.10;0.10;;;;;;;27.40;58.00;98233.00;5087289;28;20506;-76
2022/07/29 07:44:24;;;;;;;0.00;0.00;;;;;;;27.49;57.42;98226.59;5086156;28;20082;-75
2022/07/29 07:46:51;;;;;;;0.10;0.10;;;;;;;27.14;59.41;98231.28;5089559;28;20127;-73
2022/07/29 07:49:18;;;;;;;0.10;0.10;;;;;;;27.42;58.82;98225.59;5089560;28;20094;-75
2022/07/29 07:51:45;;;;;;;0.10;0.10;;;;;;;27.83;57.26;98222.66;5089294;28;20131;-73
2022/07/29 07:54:16;;;;;;;0.00;0.00;;;;;;;28.05;55.32;98220.28;5090122;28;20052;-75
2022/07/29 07:56:44;;;;;;;0.10;0.10;;;;;;;28.53;53.59;98231.69;5090142;28;20290;-76
2022/07/29 07:59:10;;;;;;;0.10;0.10;;;;;;;29.86;48.53;98221.28;5089206;28;20127;-75
2022/07/29 08:01:37;;;;;;;0.00;0.00;;;;;;;30.43;48.03;98217.94;5087835;28;20142;-75
2022/07/29 08:04:15;;;;;;;0.10;0.10;;;;;;;32.39;42.91;98216.16;5089509;28;20444;-75
2022/07/29 08:06:43;;;;;;;0.10;0.10;;;;;;;32.56;41.70;98218.38;5090015;28;20058;-73
2022/07/29 08:09:09;;;;;;;0.00;0.00;;;;;;;30.91;44.89;98219.97;5090143;28;20054;-75
2022/07/29 08:11:54;;;;;;;0.10;0.10;;;;;;;30.79;44.44;98217.94;5089842;28;20487;-75
2022/07/29 08:14:20;;;;;;;0.10;0.10;;;;;;;30.70;44.84;98222.63;5089221;28;20138;-76
2022/07/29 08:16:47;;;;;;;0.10;0.10;;;;;;;29.98;45.75;98231.63;5088585;28;20055;-75
2022/07/29 08:19:14;;;;;;;0.10;0.10;;;;;;;29.85;46.89;98226.84;5087863;28;20082;-73
2022/07/29 08:21:40;;;;;;;0.10;0.10;;;;;;;29.78;46.38;98224.06;5088249;28;20069;-75
2022/07/29 08:26:52;;;;;;;0.10;0.10;;;;;;;29.41;47.94;98217.81;5089702;28;20503;-76
2022/07/29 08:29:19;;;;;;;0.10;0.10;;;;;;;29.58;47.92;98219.34;5087639;28;20502;-75
2022/07/29 08:31:45;;;;;;;0.10;0.10;;;;;;;29.01;49.48;98221.66;5089165;28;20048;-75
2022/07/29 08:34:12;;;;;;;0.00;0.00;;;;;;;29.10;49.70;98225.94;5088351;28;20075;-72
2022/07/29 08:36:39;;;;;;;0.10;0.10;;;;;;;29.15;49.09;98228.97;5088000;28;20502;-76
2022/07/29 08:39:06;;;;;;;0.10;0.10;;;;;;;28.91;49.47;98221.88;5088299;28;20455;-75
2022/07/29 08:41:32;;;;;;;0.00;0.00;;;;;;;28.63;49.80;98226.09;5088670;28;20063;-75
2022/07/29 08:43:58;;;;;;;0.10;0.10;;;;;;;28.26;51.63;98225.91;5088674;28;20058;-75
2022/07/29 08:46:25;;;;;;;0.10;0.10;;;;;;;28.39;51.63;98232.41;5085214;28;20044;-75
2022/07/29 08:48:51;;;;;;;0.10;0.10;;;;;;;28.77;50.83;98227.22;5088613;28;20131;-75
2022/07/29 08:51:19;;;;;;;0.10;0.10;;;;;;;28.17;49.61;98225.13;5086556;28;20051;-76
2022/07/29 08:53:48;;;;;;;0.10;0.10;;;;;;;28.00;50.50;98226.19;5087941;28;20079;-75
2022/07/29 08:56:18;;;;;;;0.10;0.10;;;;;;;28.09;51.05;98221.63;5095528;28;20075;-74
2022/07/29 08:58:46;;;;;;;0.10;0.10;;;;;;;28.29;51.20;98222.88;5089332;28;20130;-75
2022/07/29 09:01:22;;;;;;;0.10;0.10;;;;;;;27.85;51.78;98219.81;5082654;28;20059;-75
2022/07/29 09:04:03;;;;;;;0.10;0.10;;;;;;;27.87;52.83;98218.63;5089045;28;20052;-75
2022/07/29 09:06:33;;;;;;;0.10;0.10;;;;;;;27.98;49.72;98208.47;5085355;28;20071;-75
2022/07/29 09:09:00;;;;;;;0.10;0.10;;;;;;;27.82;49.29;98220.16;5086195;28;20052;-74
2022/07/29 09:11:27;;;;;;;0.10;0.10;;;;;;;27.65;49.25;98215.81;5087885;28;20219;-73
2022/07/29 09:13:53;;;;;;;0.10;0.10;;;;;;;28.00;48.13;98218.09;5087384;28;20044;-73
2022/07/29 09:16:20;;;;;;;0.10;0.10;;;;;;;27.78;47.26;98221.50;5084591;28;20064;-73
2022/07/29 09:19:19;;;;;;;0.10;0.10;;;;;;;28.17;46.61;98219.72;5085008;28;20155;-73
2022/07/29 09:21:58;;;;;;;0.03;0.03;;;;;;;28.01;45.29;98218.94;5083863;28;20044;-76
2022/07/29 09:24:39;;;;;;;0.10;0.10;;;;;;;28.48;43.57;98230.53;5086630;28;20132;-75
2022/07/29 09:27:16;;;;;;;0.10;0.10;;;;;;;28.79;42.62;98217.09;5081656;28;20543;-75
2022/07/29 09:29:43;;;;;;;0.10;0.10;;;;;;;27.43;47.42;98225.41;5087411;28;20058;-75
2022/07/29 09:32:12;;;;;;;0.10;0.10;;;;;;;28.53;45.20;98220.91;5087282;28;20046;-75
2022/07/29 09:34:39;;;;;;;0.10;0.10;;;;;;;28.85;45.76;98222.59;5087572;28;20048;-75
2022/07/29 09:37:06;;;;;;;0.10;0.10;;;;;;;28.94;43.49;98210.75;5087822;28;20131;-75
2022/07/29 09:39:37;;;;;;;0.10;0.10;;;;;;;29.16;43.50;98203.66;5086235;28;20048;-75
2022/07/29 09:42:05;;;;;;;0.10;0.10;;;;;;;28.80;42.97;98214.22;5084416;28;20305;-75
2022/07/29 09:44:47;;;;;;;0.00;0.00;;;;;;;28.53;44.96;98218.19;5087816;28;20300;-74
2022/07/29 09:47:15;;;;;;;0.00;0.00;;;;;;;28.48;44.45;98219.75;5086404;28;20040;-75
2022/07/29 09:49:58;;;;;;;0.00;0.00;;;;;;;28.49;44.54;98214.19;5086128;28;20596;-75
2022/07/29 09:52:29;;;;;;;0.10;0.10;;;;;;;27.78;45.12;98210.75;5085272;28;20047;-74
2022/07/29 09:55:07;;;;;;;0.05;0.05;;;;;;;28.89;44.19;98202.34;5086430;28;20052;-75
2022/07/29 09:57:33;;;;;;;0.00;0.00;;;;;;;28.84;44.27;98201.22;5084611;28;20047;-75
2022/07/29 10:00:10;;;;;;;0.10;0.10;;;;;;;28.30;43.71;98206.53;5085288;28;20135;-74
2022/07/29 10:02:39;;;;;;;0.10;0.10;;;;;;;29.43;42.76;98202.25;5088800;28;20086;-75
2022/07/29 10:05:15;;;;;;;0.10;0.10;;;;;;;29.72;42.36;98192.38;5087881;28;20090;-75
2022/07/29 10:07:44;;;;;;;0.00;0.00;;;;;;;29.64;41.93;98194.31;5085220;28;20044;-75
2022/07/29 10:10:26;;;;;;;0.10;0.10;;;;;;;28.82;40.99;98195.16;5086740;28;20425;-76
2022/07/29 10:12:54;;;;;;;0.10;0.10;;;;;;;29.31;40.67;98201.06;5086463;28;20113;-74
2022/07/29 10:15:23;;;;;;;0.00;0.00;;;;;;;29.61;39.74;98197.38;5083961;28;20079;-75
2022/07/29 10:17:51;;;;;;;0.10;0.10;;;;;;;28.87;40.89;98199.00;5086747;28;20052;-75
2022/07/29 10:20:18;;;;;;;0.10;0.10;;;;;;;29.40;40.81;98200.78;5087010;28;20176;-74
2022/07/29 10:22:46;;;;;;;0.10;0.10;;;;;;;29.17;39.80;98206.19;5084237;28;20476;-75
2022/07/29 10:25:20;;;;;;;0.10;0.10;;;;;;;28.92;39.89;98202.00;5085051;28;20058;-75
2022/07/29 10:27:47;;;;;;;0.08;0.08;;;;;;;29.32;41.00;98198.16;5087846;28;20067;-75
2022/07/29 10:30:15;;;;;;;0.10;0.10;;;;;;;29.05;42.49;98196.81;5084781;28;20154;-74
2022/07/29 10:33:22;;;;;;;0.00;0.00;;;;;;;28.97;41.16;98196.91;5087866;28;20054;-75
2022/07/29 10:36:10;;;;;;;0.10;0.10;;;;;;;28.83;41.88;98197.69;5090839;28;20087;-74
2022/07/29 10:39:05;;;;;;;0.00;0.00;;;;;;;28.77;43.12;98197.56;5089962;28;20052;-75
2022/07/29 10:42:10;;;;;;;0.10;0.10;;;;;;;28.00;43.77;98193.00;5087844;28;20048;-74
2022/07/29 10:44:40;;;;;;;0.10;0.10;;;;;;;28.89;41.82;98193.41;5080938;28;20119;-74
2022/07/29 10:47:07;;;;;;;0.10;0.10;;;;;;;29.00;43.18;98193.81;5088458;28;20087;-74
2022/07/29 10:49:35;;;;;;;0.10;0.10;;;;;;;28.79;43.40;98190.94;5090292;28;20048;-74
2022/07/29 10:52:08;;;;;;;0.10;0.10;;;;;;;28.59;44.09;98179.81;5089276;28;20505;-74
2022/07/29 10:54:41;;;;;;;0.10;0.10;;;;;;;28.86;44.29;98183.00;5086625;28;20486;-74
2022/07/29 10:57:13;;;;;;;0.10;0.10;;;;;;;28.39;44.62;98201.97;5090546;28;20487;-75
2022/07/29 10:59:41;;;;;;;0.00;0.00;;;;;;;28.44;44.37;98196.84;5089622;28;20448;-75
2022/07/29 11:02:36;;;;;;;0.00;0.00;;;;;;;28.42;44.36;98194.34;5088362;28;20036;-76
2022/07/29 11:05:19;;;;;;;0.10;0.10;;;;;;;27.96;44.88;98181.75;5087995;28;20139;-74
2022/07/29 11:08:07;;;;;;;0.10;0.10;;;;;;;28.00;44.70;98210.03;5088008;28;20433;-74
2022/07/29 11:10:38;;;;;;;0.10;0.10;;;;;;;28.11;43.77;98206.13;5089978;28;20487;-74
2022/07/29 11:13:05;;;;;;;0.10;0.10;;;;;;;28.50;45.72;98210.50;5084486;28;20131;-74
2022/07/29 11:15:55;;;;;;;0.00;0.00;;;;;;;27.99;44.49;98196.72;5072466;28;20131;-75
2022/07/29 11:18:22;;;;;;;0.10;0.10;;;;;;;28.15;45.07;98196.69;5089523;28;20044;-75
2022/07/29 11:20:52;;;;;;;0.10;0.10;;;;;;;28.43;46.54;98195.19;5089060;28;20044;-75
2022/07/29 11:23:30;;;;;;;0.10;0.10;;;;;;;28.39;45.65;98192.00;5087642;28;20079;-75
2022/07/29 11:26:21;;;;;;;0.10;0.10;;;;;;;27.75;45.11;98217.31;5090709;28;20689;-75
2022/07/29 11:29:24;;;;;;;0.10;0.10;;;;;;;27.81;51.30;98221.16;5086967;28;20054;-75
2022/07/29 11:31:55;;;;;;;0.00;0.00;;;;;;;28.00;54.29;98225.34;5089106;28;20127;-75
2022/07/29 11:34:32;;;;;;;0.10;0.10;;;;;;;27.65;55.81;98218.50;5089975;28;20126;-75
2022/07/29 11:37:09;;;;;;;0.10;0.10;;;;;;;27.28;64.72;98219.88;5087610;28;20075;-74
2022/07/29 11:39:40;;;;;;;0.10;0.10;;;;;;;26.50;80.54;98223.91;5086619;28;20494;-73
2022/07/29 11:42:24;;;;;;;0.10;0.10;;;;;;;25.48;88.28;98242.81;5090170;28;20079;-74
2022/07/29 11:45:13;;;;;;;0.10;0.10;;;;;;;25.64;95.68;98240.25;5089303;28;20071;-74
2022/07/29 11:47:59;;;;;;;0.10;0.10;;;;;;;26.34;93.92;98218.50;5089376;28;20074;-75
2022/07/29 11:50:46;;;;;;;0.10;0.10;;;;;;;26.52;94.32;98219.22;5089055;28;20044;-74
2022/07/29 11:53:14;;;;;;;0.10;0.10;;;;;;;26.28;100.00;98221.00;5085197;28;20052;-75
2022/07/29 11:55:42;;;;;;;0.10;0.10;;;;;;;26.08;100.00;98220.38;5086918;28;20054;-74
2022/07/29 11:58:22;;;;;;;0.10;0.10;;;;;;;26.34;100.00;98218.50;5089354;28;20048;-74